Time;durP1;ratioP1;P1;durP2;ratioP2;P2;SDS_P1;SDS_P2;PMS_P1;PMS_P2;Temp;Humidity;BMP_temperature;BMP_pressure;BME280_temperature;BME280_humidity;BME280_pressure;Samples;Min_cycle;Max_cycle;Signal;HPM_P1;HPM_P2
2022/01/09 00:03:21;;;;;;;38.17;29.02;;;1.00;82.70;;;;;;10945882;32;20037;-74
2022/01/09 00:09:23;;;;;;;51.75;37.17;;;1.10;82.80;;;;;;10945581;32;20018;-74
2022/01/09 00:15:25;;;;;;;37.03;28.02;;;1.10;82.90;;;;;;10945282;32;20023;-74
2022/01/09 00:21:27;;;;;;;47.15;36.20;;;1.10;83.00;;;;;;10944928;32;20050;-74
2022/01/09 00:27:30;;;;;;;41.20;31.30;;;1.10;83.20;;;;;;10941584;32;20023;-74
2022/01/09 00:33:32;;;;;;;43.50;31.62;;;1.10;83.30;;;;;;10941057;32;20015;-74
2022/01/09 00:39:34;;;;;;;31.55;23.33;;;1.10;83.40;;;;;;10944448;32;20085;-74
2022/01/09 00:45:37;;;;;;;22.75;17.42;;;1.10;83.30;;;;;;10943997;32;20019;-74
2022/01/09 00:51:39;;;;;;;23.17;17.60;;;1.20;83.20;;;;;;10944040;32;20007;-74
2022/01/09 00:57:41;;;;;;;25.58;17.30;;;1.20;83.10;;;;;;10943707;32;20041;-74
2022/01/09 01:03:43;;;;;;;20.75;16.27;;;1.10;83.00;;;;;;10943764;32;20363;-74
2022/01/09 01:09:45;;;;;;;22.50;15.70;;;1.10;83.00;;;;;;10943504;32;20022;-73
2022/01/09 01:15:48;;;;;;;22.02;16.42;;;1.10;83.00;;;;;;10941336;32;20022;-74
2022/01/09 01:21:50;;;;;;;22.90;15.75;;;1.00;83.00;;;;;;10929530;32;20049;-74
2022/01/09 01:27:52;;;;;;;22.52;18.35;;;1.00;83.30;;;;;;10942823;32;20023;-74
2022/01/09 01:33:54;;;;;;;21.67;14.02;;;1.00;83.10;;;;;;10928781;32;20065;-74
2022/01/09 01:39:56;;;;;;;20.02;15.20;;;0.90;83.00;;;;;;10942319;32;20410;-74
2022/01/09 01:46:02;;;;;;;19.70;14.07;;;0.90;83.30;;;;;;10971018;27;20492;-74
2022/01/09 01:52:05;;;;;;;19.20;14.02;;;1.00;83.20;;;;;;10965925;32;20033;-74
2022/01/09 01:58:12;;;;;;;26.98;17.45;;;1.00;83.20;;;;;;10979657;32;20057;-74
2022/01/09 02:04:15;;;;;;;20.02;15.45;;;1.00;83.20;;;;;;10979045;32;20031;-74
2022/01/09 02:10:18;;;;;;;17.58;13.98;;;1.00;83.40;;;;;;10979317;32;20045;-74
2022/01/09 02:16:20;;;;;;;20.33;13.90;;;1.00;83.30;;;;;;10979141;32;20022;-74
2022/01/09 02:22:29;;;;;;;16.85;13.85;;;0.90;83.20;;;;;;10965860;32;20022;-74
2022/01/09 02:28:31;;;;;;;20.52;16.00;;;0.90;83.20;;;;;;10979245;32;20010;-74
2022/01/09 02:34:34;;;;;;;20.42;14.48;;;0.80;83.30;;;;;;10978911;32;20100;-74
2022/01/09 02:40:36;;;;;;;22.35;14.82;;;0.70;83.30;;;;;;10978758;32;20049;-74
2022/01/09 02:53:01;;;;;;;29.95;21.52;;;0.70;83.40;;;;;;10986049;32;20015;-74
2022/01/09 02:59:03;;;;;;;23.73;19.00;;;0.80;83.50;;;;;;10985597;32;20038;-74
2022/01/09 03:05:05;;;;;;;23.80;16.65;;;0.80;83.50;;;;;;10971870;32;20379;-74
2022/01/09 03:11:07;;;;;;;21.60;14.05;;;0.80;83.50;;;;;;10985174;32;20027;-74
2022/01/09 03:17:09;;;;;;;18.65;14.87;;;0.80;83.40;;;;;;10984942;32;20362;-74
2022/01/09 03:23:11;;;;;;;28.10;19.00;;;0.60;83.40;;;;;;10981063;32;20022;-74
2022/01/09 03:29:13;;;;;;;21.60;15.60;;;0.60;83.50;;;;;;10984507;32;20305;-74
2022/01/09 03:35:17;;;;;;;21.67;15.38;;;0.60;83.60;;;;;;10984335;32;20027;-74
2022/01/09 03:41:19;;;;;;;25.27;18.37;;;0.60;83.60;;;;;;10984146;32;20382;-74
2022/01/09 03:47:21;;;;;;;22.85;17.25;;;0.70;83.70;;;;;;10983780;32;20019;-74
2022/01/09 03:53:23;;;;;;;23.25;17.60;;;0.70;83.70;;;;;;10983573;32;20023;-74
2022/01/09 03:59:25;;;;;;;33.10;23.02;;;0.70;83.80;;;;;;10980000;32;20022;-74
2022/01/09 04:05:27;;;;;;;45.92;29.63;;;0.70;83.90;;;;;;10983169;32;20026;-74
2022/01/09 04:11:35;;;;;;;32.17;22.40;;;0.70;83.90;;;;;;10982909;32;20022;-74
2022/01/09 04:17:59;;;;;;;39.78;29.45;;;0.70;84.30;;;;;;10982665;32;20018;-74
2022/01/09 04:24:00;;;;;;;38.13;27.35;;;0.60;84.40;;;;;;10982467;32;20027;-74
2022/01/09 04:30:16;;;;;;;30.50;25.52;;;0.50;84.70;;;;;;10981062;32;20038;-74
2022/01/09 04:36:18;;;;;;;38.13;28.98;;;0.50;84.70;;;;;;10968557;32;20018;-74
2022/01/09 04:42:26;;;;;;;39.45;31.35;;;0.50;84.80;;;;;;10978504;32;20049;-74
2022/01/09 04:48:28;;;;;;;38.45;25.40;;;0.40;84.70;;;;;;10981710;32;20019;-74
2022/01/09 04:54:36;;;;;;;34.03;28.48;;;0.30;85.00;;;;;;10981425;32;20031;-74
2022/01/09 05:00:40;;;;;;;33.78;25.92;;;0.20;85.20;;;;;;10977598;32;20021;-74
2022/01/09 05:07:01;;;;;;;26.90;21.95;;;0.20;85.10;;;;;;10981130;32;20027;-74
2022/01/09 05:13:03;;;;;;;25.50;19.10;;;0.20;85.40;;;;;;10980261;32;20011;-74
2022/01/09 05:19:07;;;;;;;20.55;15.90;;;0.40;85.30;;;;;;10980547;32;20061;-74
2022/01/09 05:25:09;;;;;;;16.58;12.30;;;0.40;85.00;;;;;;10980630;32;20401;-74
2022/01/09 05:31:11;;;;;;;31.87;21.00;;;0.40;84.90;;;;;;10980108;32;20041;-74
2022/01/09 05:37:28;;;;;;;17.85;13.18;;;0.40;84.90;;;;;;10977139;32;20061;-74
2022/01/09 05:43:32;;;;;;;20.15;12.85;;;0.40;84.90;;;;;;10979845;32;20030;-74
2022/01/09 05:49:34;;;;;;;18.98;14.55;;;0.40;84.80;;;;;;10980042;32;20039;-74
2022/01/09 05:55:36;;;;;;;19.60;17.12;;;0.50;84.70;;;;;;10966420;32;20046;-74
2022/01/09 06:01:38;;;;;;;19.87;13.73;;;0.50;84.90;;;;;;10979467;32;20022;-74
2022/01/09 06:07:41;;;;;;;16.08;12.32;;;0.50;84.90;;;;;;10979365;32;20026;-71
2022/01/09 06:13:43;;;;;;;18.90;13.15;;;0.40;84.70;;;;;;10979329;32;20006;-71
2022/01/09 06:19:46;;;;;;;12.90;10.30;;;0.30;84.70;;;;;;10978852;32;20023;-71
2022/01/09 06:25:48;;;;;;;22.17;15.23;;;0.30;84.90;;;;;;10986491;32;20033;-71
2022/01/09 06:32:19;;;;;;;31.62;21.52;;;0.40;85.00;;;;;;10987322;32;20018;-71
2022/01/09 06:38:21;;;;;;;23.65;16.92;;;0.40;84.80;;;;;;10986334;32;20018;-71
2022/01/09 06:44:23;;;;;;;24.48;16.60;;;0.20;84.60;;;;;;10986301;32;20323;-71
2022/01/09 06:50:27;;;;;;;17.87;12.98;;;0.10;84.70;;;;;;10986142;32;20036;-71
2022/01/09 06:56:29;;;;;;;21.87;16.42;;;0.20;84.80;;;;;;10981668;32;20398;-71
2022/01/09 07:02:31;;;;;;;18.52;12.65;;;0.30;84.90;;;;;;10985633;32;20528;-71
2022/01/09 07:08:35;;;;;;;21.20;15.13;;;0.40;85.00;;;;;;10971786;32;20045;-72
2022/01/09 07:14:38;;;;;;;20.35;14.07;;;0.40;85.00;;;;;;10968583;32;20026;-71
2022/01/09 07:20:40;;;;;;;23.95;17.12;;;0.50;85.00;;;;;;10980335;32;20062;-72
2022/01/09 07:26:43;;;;;;;17.87;12.35;;;0.50;85.10;;;;;;10984607;32;20045;-72
2022/01/09 07:32:45;;;;;;;17.30;13.13;;;0.50;85.20;;;;;;10983632;32;20053;-72
2022/01/09 07:38:47;;;;;;;13.65;9.27;;;0.60;85.20;;;;;;10984288;32;20019;-72
2022/01/09 07:44:50;;;;;;;18.77;14.35;;;0.60;85.10;;;;;;10981822;32;20059;-72
2022/01/09 07:51:04;;;;;;;16.73;11.82;;;0.70;85.20;;;;;;10983723;32;20026;-72
2022/01/09 07:57:07;;;;;;;12.43;8.85;;;0.70;85.30;;;;;;10983051;32;20335;-71
2022/01/09 08:03:09;;;;;;;13.95;9.00;;;0.80;85.20;;;;;;10969938;32;20084;-71
2022/01/09 08:09:22;;;;;;;17.42;13.02;;;0.80;85.20;;;;;;10983067;32;20417;-71
2022/01/09 08:15:24;;;;;;;13.85;8.40;;;0.90;85.20;;;;;;10982490;32;20382;-72
2022/01/09 08:21:27;;;;;;;20.62;14.80;;;0.90;85.20;;;;;;10982707;32;20375;-72
2022/01/09 08:27:29;;;;;;;18.00;11.38;;;0.90;85.10;;;;;;10982360;32;20073;-71
2022/01/09 08:33:53;;;;;;;14.65;11.30;;;0.80;84.90;;;;;;10982267;32;20049;-71
2022/01/09 08:39:59;;;;;;;19.95;13.57;;;0.80;85.00;;;;;;10981993;32;20045;-71
2022/01/09 08:46:01;;;;;;;17.30;13.32;;;0.90;84.80;;;;;;10981580;32;20018;-71
2022/01/09 08:52:30;;;;;;;16.70;11.48;;;1.00;84.80;;;;;;10981508;32;20018;-71
2022/01/09 08:58:42;;;;;;;15.07;10.23;;;1.10;84.80;;;;;;10980638;32;20093;-71
2022/01/09 09:04:45;;;;;;;19.85;13.05;;;1.20;84.60;;;;;;10981146;32;20019;-71
2022/01/09 09:10:47;;;;;;;19.90;15.18;;;1.20;84.60;;;;;;10980969;32;20014;-71
2022/01/09 09:16:49;;;;;;;16.70;11.98;;;1.30;84.70;;;;;;10980789;32;20088;-71
2022/01/09 09:22:51;;;;;;;17.60;12.68;;;1.40;84.60;;;;;;10980530;32;20045;-71
2022/01/09 09:28:53;;;;;;;23.65;17.23;;;1.40;84.60;;;;;;10980468;32;20030;-74
2022/01/09 09:34:56;;;;;;;19.42;15.27;;;1.40;84.30;;;;;;10981238;32;20026;-74
2022/01/09 09:41:00;;;;;;;24.58;16.73;;;1.50;84.30;;;;;;10979793;32;20027;-74
2022/01/09 09:47:03;;;;;;;19.92;13.68;;;1.60;84.40;;;;;;10981724;27;20030;-74
2022/01/09 09:53:05;;;;;;;14.70;11.00;;;1.60;84.30;;;;;;10979373;32;20015;-74
2022/01/09 09:59:07;;;;;;;16.55;14.25;;;1.70;84.30;;;;;;10979281;32;20046;-74
2022/01/09 10:05:11;;;;;;;20.77;16.92;;;1.80;84.10;;;;;;10981410;32;20280;-74
2022/01/09 10:11:13;;;;;;;19.67;14.38;;;1.90;83.80;;;;;;10976724;32;20300;-74
2022/01/09 10:17:24;;;;;;;20.65;16.67;;;1.90;83.70;;;;;;10979386;32;20042;-75
2022/01/09 10:23:26;;;;;;;31.95;24.27;;;1.90;83.70;;;;;;10979120;32;20035;-74
2022/01/09 10:29:30;;;;;;;27.67;20.88;;;2.00;83.50;;;;;;10965633;32;20389;-75
2022/01/09 10:35:43;;;;;;;22.35;18.33;;;2.10;83.20;;;;;;10979027;32;20027;-75
2022/01/09 10:41:49;;;;;;;42.85;30.45;;;2.10;82.90;;;;;;10978873;32;20307;-74
2022/01/09 10:47:56;;;;;;;24.80;20.45;;;2.10;82.90;;;;;;10978825;32;20157;-75
2022/01/09 10:54:00;;;;;;;24.90;20.10;;;2.10;83.00;;;;;;10978716;32;20023;-75
2022/01/09 11:00:33;;;;;;;31.95;25.17;;;2.20;82.90;;;;;;10978475;32;20014;-75
2022/01/09 11:07:05;;;;;;;39.70;25.37;;;2.20;82.70;;;;;;10978243;32;20019;-71
2022/01/09 11:13:14;;;;;;;33.42;22.90;;;2.30;82.40;;;;;;10984834;32;20031;-71
2022/01/09 11:19:21;;;;;;;32.17;21.25;;;2.40;82.20;;;;;;10971135;32;20034;-71
2022/01/09 11:25:43;;;;;;;27.15;21.08;;;2.40;81.70;;;;;;10981229;32;20045;-74
2022/01/09 11:31:55;;;;;;;28.55;21.02;;;2.40;81.60;;;;;;10980244;32;20023;-74
2022/01/09 11:38:26;;;;;;;29.92;20.88;;;2.40;80.90;;;;;;10970904;32;20441;-76
2022/01/09 11:44:31;;;;;;;33.50;21.85;;;2.40;79.60;;;;;;10967093;32;20034;-75
2022/01/09 11:50:34;;;;;;;26.77;18.75;;;2.40;79.20;;;;;;10946055;32;20023;-74
2022/01/09 11:56:49;;;;;;;27.58;18.08;;;2.40;79.30;;;;;;10946297;32;20359;-75
2022/01/09 12:02:51;;;;;;;30.73;22.83;;;2.40;79.00;;;;;;10945973;32;20347;-75
2022/01/09 12:08:53;;;;;;;26.15;19.65;;;2.50;78.50;;;;;;10945437;32;20031;-71
2022/01/09 12:15:01;;;;;;;21.77;17.67;;;2.50;78.60;;;;;;10945439;32;20351;-74
2022/01/09 12:21:03;;;;;;;25.80;17.80;;;2.50;78.50;;;;;;10944824;32;20290;-74
2022/01/09 12:27:48;;;;;;;27.50;20.02;;;2.60;78.60;;;;;;10944089;32;20041;-74
2022/01/09 12:33:52;;;;;;;19.10;14.20;;;2.60;78.40;;;;;;10829633;32;20063;-74
2022/01/09 12:39:54;;;;;;;17.10;12.95;;;2.60;78.80;;;;;;10828464;32;20054;-74
2022/01/09 12:46:11;;;;;;;21.40;14.45;;;2.60;78.70;;;;;;10824370;32;20409;-74
2022/01/09 12:52:21;;;;;;;20.00;13.57;;;2.70;79.00;;;;;;10828091;32;20066;-74
2022/01/09 12:58:35;;;;;;;21.73;15.00;;;2.80;79.40;;;;;;10815321;32;20036;-74
2022/01/09 13:04:37;;;;;;;21.60;15.32;;;2.90;79.50;;;;;;10831599;32;20016;-74
2022/01/09 13:10:39;;;;;;;12.40;8.60;;;3.10;80.00;;;;;;10943404;32;20045;-74
2022/01/09 13:16:41;;;;;;;16.95;11.93;;;3.20;80.10;;;;;;10943153;32;20050;-74
2022/01/09 13:22:46;;;;;;;18.60;12.98;;;3.30;80.40;;;;;;10942926;32;20053;-74
2022/01/09 13:28:57;;;;;;;15.00;9.23;;;3.20;79.90;;;;;;10940239;32;20023;-74
2022/01/09 13:34:59;;;;;;;28.85;19.95;;;3.20;80.30;;;;;;10941167;32;20438;-74
2022/01/09 13:41:14;;;;;;;24.20;16.85;;;3.20;80.30;;;;;;10942593;32;20015;-74
2022/01/09 13:47:18;;;;;;;15.27;10.88;;;3.30;80.70;;;;;;10941617;32;20027;-74
2022/01/09 13:53:24;;;;;;;15.90;12.05;;;3.50;81.50;;;;;;10938418;32;20059;-74
2022/01/09 13:59:42;;;;;;;15.98;11.00;;;3.80;81.50;;;;;;10937552;32;20070;-74
2022/01/09 14:05:47;;;;;;;14.70;10.50;;;3.90;81.20;;;;;;10942000;32;20035;-74
2022/01/09 14:12:02;;;;;;;14.32;10.25;;;3.80;81.50;;;;;;10941774;32;20023;-74
2022/01/09 14:18:04;;;;;;;18.23;13.50;;;3.80;81.90;;;;;;10941496;32;20027;-74
2022/01/09 14:24:08;;;;;;;16.35;11.40;;;4.00;82.40;;;;;;10941931;32;20019;-72
2022/01/09 14:30:40;;;;;;;14.32;10.10;;;4.20;82.20;;;;;;10940731;32;20391;-74
2022/01/09 14:36:44;;;;;;;14.52;10.50;;;4.40;81.90;;;;;;10941923;32;20026;-74
2022/01/09 14:42:46;;;;;;;14.45;9.93;;;4.40;82.40;;;;;;10569193;32;12078889;-74
2022/01/09 14:48:53;;;;;;;14.07;11.00;;;4.60;82.40;;;;;;10907396;32;20077;-74
2022/01/09 14:54:55;;;;;;;15.55;11.40;;;4.70;82.20;;;;;;10907522;32;20028;-72
2022/01/09 15:00:58;;;;;;;14.45;9.82;;;4.50;82.10;;;;;;10892024;32;20027;-74
2022/01/09 15:07:00;;;;;;;17.58;11.55;;;4.40;82.60;;;;;;10894427;32;20027;-74
2022/01/09 15:13:07;;;;;;;28.08;20.25;;;4.10;82.60;;;;;;10942284;32;20061;-74
2022/01/09 15:19:10;;;;;;;22.85;13.80;;;3.90;82.70;;;;;;10946457;32;20034;-74
2022/01/09 15:25:12;;;;;;;19.05;13.20;;;3.70;83.10;;;;;;10961042;32;20053;-74
2022/01/09 15:31:15;;;;;;;17.30;12.45;;;3.70;83.40;;;;;;10984684;32;20030;-74
2022/01/09 15:37:17;;;;;;;17.52;11.73;;;3.50;83.40;;;;;;10944248;32;20053;-74
2022/01/09 15:43:19;;;;;;;16.75;11.23;;;3.50;83.60;;;;;;10942845;32;20061;-74
2022/01/09 15:49:22;;;;;;;22.27;15.43;;;3.40;83.80;;;;;;10945659;32;20347;-74
2022/01/09 15:55:29;;;;;;;27.70;18.58;;;3.90;84.40;;;;;;10945259;32;20058;-74
2022/01/09 16:01:31;;;;;;;21.55;14.82;;;4.30;83.80;;;;;;10942444;32;20050;-71
2022/01/09 16:07:33;;;;;;;22.27;15.02;;;4.30;83.10;;;;;;10945685;32;20031;-71
2022/01/09 16:13:37;;;;;;;29.02;19.83;;;4.10;83.50;;;;;;10944905;32;20027;-69
2022/01/09 16:19:40;;;;;;;26.80;18.60;;;3.80;83.60;;;;;;10945301;32;20057;-71
2022/01/09 16:25:42;;;;;;;28.65;19.83;;;3.70;84.00;;;;;;10945180;32;20374;-71
2022/01/09 16:31:45;;;;;;;39.60;28.20;;;3.50;83.80;;;;;;10944877;32;20050;-68
2022/01/09 16:37:47;;;;;;;30.17;22.50;;;3.40;83.60;;;;;;10944453;32;20030;-71
2022/01/09 16:43:50;;;;;;;43.10;29.02;;;3.20;83.20;;;;;;10944354;32;20027;-71
2022/01/09 16:49:52;;;;;;;35.55;27.08;;;3.20;82.50;;;;;;10944292;32;20015;-71
2022/01/09 16:55:55;;;;;;;29.40;19.85;;;3.10;82.50;;;;;;10944053;32;20053;-74
2022/01/09 17:01:57;;;;;;;34.42;23.73;;;3.30;83.40;;;;;;10943829;32;20014;-74
2022/01/09 17:07:59;;;;;;;29.95;22.55;;;3.50;83.00;;;;;;10939263;32;20027;-74
2022/01/09 17:14:02;;;;;;;32.55;23.27;;;3.50;83.00;;;;;;10942738;32;20383;-74
2022/01/09 17:20:05;;;;;;;35.22;27.58;;;3.30;82.50;;;;;;10943070;32;20445;-74
2022/01/09 17:26:09;;;;;;;26.23;21.30;;;3.20;82.60;;;;;;10928796;32;20049;-71
2022/01/09 17:32:11;;;;;;;58.25;37.95;;;3.20;83.30;;;;;;10942965;32;20027;-74
2022/01/09 17:38:14;;;;;;;31.50;24.92;;;3.60;84.20;;;;;;10929125;32;20100;-74
2022/01/09 17:44:16;;;;;;;34.28;25.73;;;4.10;84.00;;;;;;10961152;27;20049;-74
2022/01/09 17:50:19;;;;;;;42.25;30.75;;;4.50;83.90;;;;;;10980002;32;20045;-74
2022/01/09 17:56:21;;;;;;;38.03;26.35;;;4.70;83.70;;;;;;10979826;32;20058;-74
2022/01/09 18:02:24;;;;;;;38.85;28.17;;;4.90;83.50;;;;;;10979807;32;20354;-73
2022/01/09 18:08:27;;;;;;;32.95;25.55;;;5.10;83.30;;;;;;10979366;32;20320;-74
2022/01/09 18:14:29;;;;;;;38.03;26.65;;;5.20;83.10;;;;;;10979370;32;20057;-73
2022/01/09 18:20:31;;;;;;;29.30;22.33;;;5.20;83.10;;;;;;10971623;32;20442;-73
2022/01/09 18:26:33;;;;;;;32.55;23.30;;;5.30;82.90;;;;;;10986913;32;20045;-73
2022/01/09 18:32:35;;;;;;;27.45;21.17;;;5.30;82.60;;;;;;10986523;32;20343;-73
2022/01/09 18:38:38;;;;;;;28.83;21.67;;;5.30;82.60;;;;;;10973045;32;20049;-73
2022/01/09 18:44:41;;;;;;;42.15;31.10;;;5.20;82.90;;;;;;10968565;32;20027;-73
2022/01/09 18:50:43;;;;;;;31.60;25.08;;;5.40;82.70;;;;;;10986111;32;20045;-74
2022/01/09 18:56:45;;;;;;;36.42;22.58;;;5.40;82.80;;;;;;10985819;32;20026;-73
2022/01/09 19:02:48;;;;;;;29.52;23.77;;;5.50;82.50;;;;;;10985671;32;20045;-70
2022/01/09 19:08:51;;;;;;;43.13;31.52;;;5.40;82.10;;;;;;10985534;32;20293;-70
2022/01/09 19:14:53;;;;;;;43.15;29.30;;;5.30;82.60;;;;;;10985208;32;20032;-70
2022/01/09 19:20:55;;;;;;;48.38;33.25;;;5.30;82.50;;;;;;10984983;32;20343;-70
2022/01/09 19:26:58;;;;;;;50.55;33.17;;;5.20;82.80;;;;;;10984746;32;20386;-70
2022/01/09 19:33:00;;;;;;;46.22;34.67;;;5.30;82.70;;;;;;10983436;32;20022;-70
2022/01/09 19:39:03;;;;;;;35.28;26.83;;;5.50;82.40;;;;;;10970900;32;20045;-70
2022/01/09 19:45:07;;;;;;;38.75;30.37;;;5.30;81.90;;;;;;10984166;32;20045;-70
2022/01/09 19:51:09;;;;;;;30.60;23.77;;;4.90;82.70;;;;;;10983920;32;20019;-70
2022/01/09 19:57:14;;;;;;;28.40;20.02;;;5.20;82.90;;;;;;10983572;32;20464;-70
2022/01/09 20:03:17;;;;;;;31.70;23.45;;;5.00;82.30;;;;;;10968726;32;20112;-70
2022/01/09 20:09:19;;;;;;;29.87;21.12;;;4.90;82.90;;;;;;10979118;32;20023;-70
2022/01/09 20:15:22;;;;;;;35.13;25.92;;;4.60;82.90;;;;;;10983140;32;20054;-73
2022/01/09 20:21:24;;;;;;;37.45;28.55;;;4.60;83.30;;;;;;10982949;32;20042;-73
2022/01/09 20:27:27;;;;;;;46.35;33.08;;;4.30;83.20;;;;;;10982583;32;20026;-74
2022/01/09 20:33:29;;;;;;;45.15;33.17;;;4.10;83.20;;;;;;10982493;32;20022;-73
2022/01/09 20:39:31;;;;;;;43.38;29.30;;;4.00;83.40;;;;;;10981897;32;20437;-73
2022/01/09 20:45:33;;;;;;;40.78;28.40;;;3.90;83.50;;;;;;10981780;32;20045;-73
2022/01/09 20:51:36;;;;;;;41.65;28.52;;;4.20;84.30;;;;;;10981492;32;20339;-73
2022/01/09 20:57:38;;;;;;;42.55;32.35;;;4.20;83.60;;;;;;10979654;32;20023;-73
2022/01/09 21:03:41;;;;;;;35.00;25.37;;;4.20;83.60;;;;;;10981132;32;20390;-73
2022/01/09 21:09:44;;;;;;;41.53;30.62;;;4.20;83.00;;;;;;10981202;32;20331;-73
2022/01/09 21:15:53;;;;;;;34.50;27.25;;;4.20;83.30;;;;;;10980844;32;20030;-73
2022/01/09 21:21:55;;;;;;;53.87;37.23;;;4.20;84.20;;;;;;10949077;32;20031;-73
2022/01/09 21:27:59;;;;;;;36.45;27.55;;;4.50;83.80;;;;;;10942247;32;20115;-73
2022/01/09 21:34:02;;;;;;;33.42;23.58;;;4.70;84.20;;;;;;10942861;32;20152;-73
2022/01/09 21:40:05;;;;;;;37.28;28.27;;;5.00;84.10;;;;;;10941697;32;20023;-73
2022/01/09 21:46:08;;;;;;;32.50;24.90;;;5.10;83.90;;;;;;10942466;32;20045;-70
2022/01/09 21:52:10;;;;;;;39.30;29.35;;;5.10;83.10;;;;;;10940564;32;20015;-70
2022/01/09 21:58:13;;;;;;;40.72;33.10;;;5.00;84.00;;;;;;10941428;32;20031;-70
2022/01/09 22:04:15;;;;;;;39.17;27.90;;;4.90;83.90;;;;;;10941719;32;20387;-70
2022/01/09 22:10:18;;;;;;;30.90;23.67;;;4.90;83.60;;;;;;10938422;32;20275;-70
2022/01/09 22:16:20;;;;;;;25.67;20.10;;;4.50;83.00;;;;;;10941780;32;20328;-70
2022/01/09 22:22:22;;;;;;;35.45;25.98;;;4.20;83.80;;;;;;10941617;32;20050;-70
2022/01/09 22:28:25;;;;;;;26.08;20.80;;;4.20;84.40;;;;;;10941494;32;20020;-70
2022/01/09 22:34:27;;;;;;;45.83;32.97;;;4.50;83.90;;;;;;10941276;32;20050;-70
2022/01/09 22:40:30;;;;;;;33.50;27.98;;;4.70;84.20;;;;;;10941338;32;20031;-70
2022/01/09 22:46:32;;;;;;;38.33;28.02;;;5.30;83.90;;;;;;10940338;32;20066;-70
2022/01/09 22:52:36;;;;;;;32.35;24.33;;;5.50;83.20;;;;;;10941071;32;20046;-70
2022/01/09 22:58:38;;;;;;;39.13;28.73;;;5.50;82.50;;;;;;10936702;32;20034;-70
2022/01/09 23:04:40;;;;;;;40.22;31.30;;;5.40;83.20;;;;;;10943988;32;20422;-70
2022/01/09 23:10:43;;;;;;;33.17;23.02;;;5.60;82.70;;;;;;10947768;32;20058;-70
2022/01/09 23:16:45;;;;;;;33.65;24.83;;;5.40;82.30;;;;;;10947615;32;20019;-70
2022/01/09 23:22:51;;;;;;;29.85;22.45;;;5.20;82.60;;;;;;10946505;32;20324;-70
2022/01/09 23:28:54;;;;;;;31.55;22.23;;;4.80;83.00;;;;;;10947209;32;20023;-70
2022/01/09 23:34:56;;;;;;;35.70;26.80;;;4.50;83.40;;;;;;10946901;32;20027;-70
2022/01/09 23:40:58;;;;;;;43.00;31.02;;;4.90;84.00;;;;;;10946696;32;20049;-70
2022/01/09 23:47:00;;;;;;;28.67;21.92;;;5.30;83.20;;;;;;10946496;32;20027;-70
2022/01/09 23:53:06;;;;;;;37.40;28.55;;;5.50;82.80;;;;;;10943396;32;20081;-70
2022/01/09 23:59:08;;;;;;;48.17;33.00;;;5.40;82.70;;;;;;10945961;32;20391;-70
